Roebuck, Mississippi
Current Conditions -  °F | °C
As of 9:53 PM on Sunday 25 Jan 2015 (Local Time) from KGWO Reporting Station
Overcast Overcast  
Wind Chill: 50°   Ceiling: 9500
Heat Index: 50°   Visibility: 10mi
Dew Point: 36°   Wind: 8mph
Humidity: 59%   Direction: 310°NW
Pressure: 29.93"   Gusts: 17mph
Location:  33.3926°N, 90.1584°W
Report Text: KGWO 260353Z AUTO 31007G15KT 10SM SCT055 OVC095 10/02 A2993 RMK AO2 SLP133 T01000022
Loading
Personal Weather Stations






























Interactive Weather Map New forecast layout! Learn more

10-Day Weather Forecast

Advertisements
Track Severe Weather on mobile